sensor_id;sensor_type;location;lat;lon;timestamp;temperature;humidity
5631;DHT22;2837;50.990;7.124;2022-10-16T05:01:36;14.80;99.90
5631;DHT22;2837;50.990;7.124;2022-10-16T05:04:01;14.80;99.90
5631;DHT22;2837;50.990;7.124;2022-10-16T05:06:27;14.80;99.90
5631;DHT22;2837;50.990;7.124;2022-10-16T05:08:52;14.80;99.90
5631;DHT22;2837;50.990;7.124;2022-10-16T05:11:18;14.80;99.90
5631;DHT22;2837;50.990;7.124;2022-10-16T05:13:43;14.80;99.90
5631;DHT22;2837;50.990;7.124;2022-10-16T05:16:09;14.80;99.90
5631;DHT22;2837;50.990;7.124;2022-10-16T05:18:35;14.80;99.90
5631;DHT22;2837;50.990;7.124;2022-10-16T05:21:00;14.80;99.90
5631;DHT22;2837;50.990;7.124;2022-10-16T05:23:26;14.80;99.90
5631;DHT22;2837;50.990;7.124;2022-10-16T05:25:53;14.70;99.90
5631;DHT22;2837;50.990;7.124;2022-10-16T05:28:19;14.70;99.90
5631;DHT22;2837;50.990;7.124;2022-10-16T05:30:45;14.80;99.90
5631;DHT22;2837;50.990;7.124;2022-10-16T05:33:10;14.80;99.90
5631;DHT22;2837;50.990;7.124;2022-10-16T05:35:36;14.90;99.90
5631;DHT22;2837;50.990;7.124;2022-10-16T05:38:01;14.80;99.90
5631;DHT22;2837;50.990;7.124;2022-10-16T05:40:27;14.80;99.90
5631;DHT22;2837;50.990;7.124;2022-10-16T05:42:55;14.70;99.90
5631;DHT22;2837;50.990;7.124;2022-10-16T05:45:21;14.80;99.90
5631;DHT22;2837;50.990;7.124;2022-10-16T05:47:46;14.80;99.90
5631;DHT22;2837;50.990;7.124;2022-10-16T05:50:12;14.80;99.90
5631;DHT22;2837;50.990;7.124;2022-10-16T05:52:37;14.80;99.90
5631;DHT22;2837;50.990;7.124;2022-10-16T05:55:03;14.80;99.90
5631;DHT22;2837;50.990;7.124;2022-10-16T05:57:29;14.80;99.90
5631;DHT22;2837;50.990;7.124;2022-10-16T05:59:55;14.70;99.90
5631;DHT22;2837;50.990;7.124;2022-10-16T06:02:21;14.70;99.90
5631;DHT22;2837;50.990;7.124;2022-10-16T06:04:46;14.70;99.90
5631;DHT22;2837;50.990;7.124;2022-10-16T06:07:12;14.70;99.90
5631;DHT22;2837;50.990;7.124;2022-10-16T06:09:37;14.60;99.90
5631;DHT22;2837;50.990;7.124;2022-10-16T06:12:03;14.70;99.90
5631;DHT22;2837;50.990;7.124;2022-10-16T06:14:28;14.60;99.90
5631;DHT22;2837;50.990;7.124;2022-10-16T06:16:54;14.70;99.90
5631;DHT22;2837;50.990;7.124;2022-10-16T06:19:20;14.70;99.90
5631;DHT22;2837;50.990;7.124;2022-10-16T06:21:45;14.70;99.90
5631;DHT22;2837;50.990;7.124;2022-10-16T06:24:11;14.60;99.90
5631;DHT22;2837;50.990;7.124;2022-10-16T06:26:37;14.60;99.90
5631;DHT22;2837;50.990;7.124;2022-10-16T06:29:03;14.60;99.90
5631;DHT22;2837;50.990;7.124;2022-10-16T06:31:29;14.60;99.90
5631;DHT22;2837;50.990;7.124;2022-10-16T06:33:56;14.70;99.90
5631;DHT22;2837;50.990;7.124;2022-10-16T06:36:23;14.70;99.90
5631;DHT22;2837;50.990;7.124;2022-10-16T06:38:49;14.70;99.90
5631;DHT22;2837;50.990;7.124;2022-10-16T06:41:18;14.80;99.90
5631;DHT22;2837;50.990;7.124;2022-10-16T06:43:43;14.80;99.90
5631;DHT22;2837;50.990;7.124;2022-10-16T06:46:14;14.80;99.90
5631;DHT22;2837;50.990;7.124;2022-10-16T06:48:40;14.90;99.90
5631;DHT22;2837;50.990;7.124;2022-10-16T06:51:14;15.00;99.90
5631;DHT22;2837;50.990;7.124;2022-10-16T06:53:43;14.90;99.90
5631;DHT22;2837;50.990;7.124;2022-10-16T06:56:18;14.90;99.90
5631;DHT22;2837;50.990;7.124;2022-10-16T06:58:43;14.90;99.90
5631;DHT22;2837;50.990;7.124;2022-10-16T07:01:10;15.00;99.90
5631;DHT22;2837;50.990;7.124;2022-10-16T07:03:37;15.00;99.90
5631;DHT22;2837;50.990;7.124;2022-10-16T07:06:05;15.10;99.90
5631;DHT22;2837;50.990;7.124;2022-10-16T07:08:35;15.10;99.90
5631;DHT22;2837;50.990;7.124;2022-10-16T07:11:12;15.10;99.90
5631;DHT22;2837;50.990;7.124;2022-10-16T07:13:40;15.10;99.90
5631;DHT22;2837;50.990;7.124;2022-10-16T07:18:34;15.20;99.90
5631;DHT22;2837;50.990;7.124;2022-10-16T07:23:29;15.20;99.90
5631;DHT22;2837;50.990;7.124;2022-10-16T07:25:55;15.20;99.90
5631;DHT22;2837;50.990;7.124;2022-10-16T07:28:21;15.20;99.90
5631;DHT22;2837;50.990;7.124;2022-10-16T07:30:47;15.20;99.90
5631;DHT22;2837;50.990;7.124;2022-10-16T07:33:12;15.30;99.90
5631;DHT22;2837;50.990;7.124;2022-10-16T07:35:46;15.30;99.90
5631;DHT22;2837;50.990;7.124;2022-10-16T07:38:12;15.30;99.90
5631;DHT22;2837;50.990;7.124;2022-10-16T07:40:37;15.30;99.90
5631;DHT22;2837;50.990;7.124;2022-10-16T07:43:03;15.30;99.90
5631;DHT22;2837;50.990;7.124;2022-10-16T07:45:30;15.30;99.90
5631;DHT22;2837;50.990;7.124;2022-10-16T07:47:56;15.30;99.90
5631;DHT22;2837;50.990;7.124;2022-10-16T07:50:21;15.30;99.90
5631;DHT22;2837;50.990;7.124;2022-10-16T07:52:47;15.30;99.90
5631;DHT22;2837;50.990;7.124;2022-10-16T07:55:12;15.30;99.90
5631;DHT22;2837;50.990;7.124;2022-10-16T07:57:38;15.30;99.90
5631;DHT22;2837;50.990;7.124;2022-10-16T08:00:04;15.30;99.90
5631;DHT22;2837;50.990;7.124;2022-10-16T08:02:31;15.30;99.90
5631;DHT22;2837;50.990;7.124;2022-10-16T08:04:56;15.30;99.90
5631;DHT22;2837;50.990;7.124;2022-10-16T08:07:22;15.20;99.90
5631;DHT22;2837;50.990;7.124;2022-10-16T08:09:50;15.20;99.90
5631;DHT22;2837;50.990;7.124;2022-10-16T08:12:17;15.20;99.90
5631;DHT22;2837;50.990;7.124;2022-10-16T08:14:42;15.20;99.90
5631;DHT22;2837;50.990;7.124;2022-10-16T08:17:08;15.20;99.90
5631;DHT22;2837;50.990;7.124;2022-10-16T08:19:33;15.20;99.90
5631;DHT22;2837;50.990;7.124;2022-10-16T08:22:00;15.30;99.90
5631;DHT22;2837;50.990;7.124;2022-10-16T08:24:26;15.30;99.90
5631;DHT22;2837;50.990;7.124;2022-10-16T08:26:53;15.30;99.90
5631;DHT22;2837;50.990;7.124;2022-10-16T08:29:19;15.30;99.90
5631;DHT22;2837;50.990;7.124;2022-10-16T08:31:45;15.30;99.90
5631;DHT22;2837;50.990;7.124;2022-10-16T08:34:11;15.30;99.90
5631;DHT22;2837;50.990;7.124;2022-10-16T08:36:36;15.40;99.90
5631;DHT22;2837;50.990;7.124;2022-10-16T08:39:02;15.40;99.90
5631;DHT22;2837;50.990;7.124;2022-10-16T08:47:21;15.60;99.90
5631;DHT22;2837;50.990;7.124;2022-10-16T08:50:12;15.60;99.90
5631;DHT22;2837;50.990;7.124;2022-10-16T08:52:41;15.60;99.90
5631;DHT22;2837;50.990;7.124;2022-10-16T08:55:20;15.60;99.90
5631;DHT22;2837;50.990;7.124;2022-10-16T08:57:50;15.60;99.90
5631;DHT22;2837;50.990;7.124;2022-10-16T09:00:16;15.60;99.90
5631;DHT22;2837;50.990;7.124;2022-10-16T09:19:55;15.70;99.90
5631;DHT22;2837;50.990;7.124;2022-10-16T09:22:27;15.70;99.90
5631;DHT22;2837;50.990;7.124;2022-10-16T09:24:56;15.80;99.90
5631;DHT22;2837;50.990;7.124;2022-10-16T09:27:24;15.80;99.90
5631;DHT22;2837;50.990;7.124;2022-10-16T09:29:51;15.70;99.90
5631;DHT22;2837;50.990;7.124;2022-10-16T09:32:19;15.70;99.90
5631;DHT22;2837;50.990;7.124;2022-10-16T09:34:53;15.80;99.90
5631;DHT22;2837;50.990;7.124;2022-10-16T09:37:22;15.80;99.90
5631;DHT22;2837;50.990;7.124;2022-10-16T09:39:53;15.80;99.90
5631;DHT22;2837;50.990;7.124;2022-10-16T09:42:33;15.80;99.90
5631;DHT22;2837;50.990;7.124;2022-10-16T09:45:00;15.80;99.90
5631;DHT22;2837;50.990;7.124;2022-10-16T09:47:27;15.80;99.90
5631;DHT22;2837;50.990;7.124;2022-10-16T09:50:00;15.90;99.90
5631;DHT22;2837;50.990;7.124;2022-10-16T09:52:28;15.90;99.90
5631;DHT22;2837;50.990;7.124;2022-10-16T09:54:55;15.90;99.90
5631;DHT22;2837;50.990;7.124;2022-10-16T09:57:21;15.90;99.90
5631;DHT22;2837;50.990;7.124;2022-10-16T09:59:49;15.90;99.90
5631;DHT22;2837;50.990;7.124;2022-10-16T10:02:17;15.90;99.90
5631;DHT22;2837;50.990;7.124;2022-10-16T10:04:51;15.90;99.90
5631;DHT22;2837;50.990;7.124;2022-10-16T10:07:29;15.90;99.90
5631;DHT22;2837;50.990;7.124;2022-10-16T10:09:58;16.00;99.90
5631;DHT22;2837;50.990;7.124;2022-10-16T10:12:25;16.00;99.90
5631;DHT22;2837;50.990;7.124;2022-10-16T10:14:54;16.00;99.90
5631;DHT22;2837;50.990;7.124;2022-10-16T10:17:30;16.00;99.90
5631;DHT22;2837;50.990;7.124;2022-10-16T10:22:45;16.00;99.90
5631;DHT22;2837;50.990;7.124;2022-10-16T10:30:57;16.00;99.90
5631;DHT22;2837;50.990;7.124;2022-10-16T10:33:47;16.00;99.90
5631;DHT22;2837;50.990;7.124;2022-10-16T10:36:35;16.00;99.90
5631;DHT22;2837;50.990;7.124;2022-10-16T10:39:08;16.00;99.90
5631;DHT22;2837;50.990;7.124;2022-10-16T10:44:21;16.10;99.90
5631;DHT22;2837;50.990;7.124;2022-10-16T10:47:24;16.10;99.90
5631;DHT22;2837;50.990;7.124;2022-10-16T10:55:33;16.10;99.90
5631;DHT22;2837;50.990;7.124;2022-10-16T10:58:31;16.10;99.90
5631;DHT22;2837;50.990;7.124;2022-10-16T11:01:09;16.10;99.90
5631;DHT22;2837;50.990;7.124;2022-10-16T11:11:35;16.20;99.90
5631;DHT22;2837;50.990;7.124;2022-10-16T11:14:11;16.30;99.90
5631;DHT22;2837;50.990;7.124;2022-10-16T11:16:57;16.20;99.90
5631;DHT22;2837;50.990;7.124;2022-10-16T11:24:58;16.30;99.90
5631;DHT22;2837;50.990;7.124;2022-10-16T11:27:47;16.30;99.90
5631;DHT22;2837;50.990;7.124;2022-10-16T11:30:20;16.30;99.90
5631;DHT22;2837;50.990;7.124;2022-10-16T11:35:41;16.30;99.90
5631;DHT22;2837;50.990;7.124;2022-10-16T11:41:35;16.40;99.90
5631;DHT22;2837;50.990;7.124;2022-10-16T11:44:20;16.40;99.90
5631;DHT22;2837;50.990;7.124;2022-10-16T11:47:00;16.50;99.90
5631;DHT22;2837;50.990;7.124;2022-10-16T11:49:28;16.50;99.90
5631;DHT22;2837;50.990;7.124;2022-10-16T11:52:03;16.50;99.90
5631;DHT22;2837;50.990;7.124;2022-10-16T11:54:41;16.60;99.90
5631;DHT22;2837;50.990;7.124;2022-10-16T11:57:33;16.60;99.90
5631;DHT22;2837;50.990;7.124;2022-10-16T12:00:06;16.60;99.90
5631;DHT22;2837;50.990;7.124;2022-10-16T12:02:54;16.60;99.90
5631;DHT22;2837;50.990;7.124;2022-10-16T12:08:15;16.70;99.90
5631;DHT22;2837;50.990;7.124;2022-10-16T12:10:44;16.70;99.90
5631;DHT22;2837;50.990;7.124;2022-10-16T12:13:42;16.70;99.90
5631;DHT22;2837;50.990;7.124;2022-10-16T12:18:40;16.70;99.90
5631;DHT22;2837;50.990;7.124;2022-10-16T12:21:07;16.70;99.90
5631;DHT22;2837;50.990;7.124;2022-10-16T12:23:54;16.70;99.90
5631;DHT22;2837;50.990;7.124;2022-10-16T12:26:26;16.60;99.90
5631;DHT22;2837;50.990;7.124;2022-10-16T12:28:54;16.60;99.90
5631;DHT22;2837;50.990;7.124;2022-10-16T12:31:20;16.60;99.90
5631;DHT22;2837;50.990;7.124;2022-10-16T12:33:59;16.50;99.90
5631;DHT22;2837;50.990;7.124;2022-10-16T12:36:33;16.50;99.90
5631;DHT22;2837;50.990;7.124;2022-10-16T12:39:00;16.50;99.90
5631;DHT22;2837;50.990;7.124;2022-10-16T12:41:32;16.50;99.90
5631;DHT22;2837;50.990;7.124;2022-10-16T12:43:59;16.50;99.90
5631;DHT22;2837;50.990;7.124;2022-10-16T12:49:21;16.50;99.90
5631;DHT22;2837;50.990;7.124;2022-10-16T12:51:47;16.50;99.90
5631;DHT22;2837;50.990;7.124;2022-10-16T12:57:03;16.50;99.90
5631;DHT22;2837;50.990;7.124;2022-10-16T13:11:41;16.50;99.90
5631;DHT22;2837;50.990;7.124;2022-10-16T13:14:39;16.50;99.90
5631;DHT22;2837;50.990;7.124;2022-10-16T13:17:19;16.50;99.90
5631;DHT22;2837;50.990;7.124;2022-10-16T13:22:30;16.60;99.90
5631;DHT22;2837;50.990;7.124;2022-10-16T13:28:00;16.60;99.90
5631;DHT22;2837;50.990;7.124;2022-10-16T13:30:28;16.70;99.90
5631;DHT22;2837;50.990;7.124;2022-10-16T13:33:02;16.70;99.90
5631;DHT22;2837;50.990;7.124;2022-10-16T13:35:31;16.80;99.90
5631;DHT22;2837;50.990;7.124;2022-10-16T13:38:15;16.80;99.90
5631;DHT22;2837;50.990;7.124;2022-10-16T13:40:59;16.80;99.90
5631;DHT22;2837;50.990;7.124;2022-10-16T13:43:33;16.80;99.90
5631;DHT22;2837;50.990;7.124;2022-10-16T13:46:11;16.80;99.90
5631;DHT22;2837;50.990;7.124;2022-10-16T13:48:37;16.80;99.90
5631;DHT22;2837;50.990;7.124;2022-10-16T13:51:12;16.90;99.90
5631;DHT22;2837;50.990;7.124;2022-10-16T13:53:39;17.00;99.90
5631;DHT22;2837;50.990;7.124;2022-10-16T13:56:17;17.00;99.90
5631;DHT22;2837;50.990;7.124;2022-10-16T13:58:43;16.90;99.90
5631;DHT22;2837;50.990;7.124;2022-10-16T14:03:42;17.00;99.90
5631;DHT22;2837;50.990;7.124;2022-10-16T14:06:15;16.90;99.90
5631;DHT22;2837;50.990;7.124;2022-10-16T14:08:59;16.90;99.90
5631;DHT22;2837;50.990;7.124;2022-10-16T14:11:26;16.90;99.90
5631;DHT22;2837;50.990;7.124;2022-10-16T14:13:52;16.90;99.90
5631;DHT22;2837;50.990;7.124;2022-10-16T14:16:21;16.90;99.90
5631;DHT22;2837;50.990;7.124;2022-10-16T14:21:20;16.90;99.90
5631;DHT22;2837;50.990;7.124;2022-10-16T14:23:46;16.90;99.90
5631;DHT22;2837;50.990;7.124;2022-10-16T14:26:12;16.90;99.90
5631;DHT22;2837;50.990;7.124;2022-10-16T14:28:40;16.90;99.90
5631;DHT22;2837;50.990;7.124;2022-10-16T14:31:28;16.90;99.90
5631;DHT22;2837;50.990;7.124;2022-10-16T14:33:54;16.90;99.90
5631;DHT22;2837;50.990;7.124;2022-10-16T14:36:20;16.90;99.90
5631;DHT22;2837;50.990;7.124;2022-10-16T14:39:05;16.80;99.90
5631;DHT22;2837;50.990;7.124;2022-10-16T14:41:32;16.80;99.90
5631;DHT22;2837;50.990;7.124;2022-10-16T14:44:03;16.80;99.90
5631;DHT22;2837;50.990;7.124;2022-10-16T14:46:36;16.80;99.90
5631;DHT22;2837;50.990;7.124;2022-10-16T14:51:41;16.80;99.90
5631;DHT22;2837;50.990;7.124;2022-10-16T14:54:13;16.80;99.90
5631;DHT22;2837;50.990;7.124;2022-10-16T14:59:33;16.80;99.90
5631;DHT22;2837;50.990;7.124;2022-10-16T15:02:09;16.80;99.90
5631;DHT22;2837;50.990;7.124;2022-10-16T15:04:42;16.80;99.90
5631;DHT22;2837;50.990;7.124;2022-10-16T15:07:07;16.80;99.90
5631;DHT22;2837;50.990;7.124;2022-10-16T15:09:33;16.80;99.90
5631;DHT22;2837;50.990;7.124;2022-10-16T15:11:59;16.80;99.90
5631;DHT22;2837;50.990;7.124;2022-10-16T15:14:24;16.80;99.90
5631;DHT22;2837;50.990;7.124;2022-10-16T15:16:50;16.80;99.90
5631;DHT22;2837;50.990;7.124;2022-10-16T15:19:15;16.80;99.90
5631;DHT22;2837;50.990;7.124;2022-10-16T15:21:41;16.80;99.90
5631;DHT22;2837;50.990;7.124;2022-10-16T15:24:13;16.80;99.90
5631;DHT22;2837;50.990;7.124;2022-10-16T15:26:40;16.80;99.90
5631;DHT22;2837;50.990;7.124;2022-10-16T15:29:06;16.80;99.90
5631;DHT22;2837;50.990;7.124;2022-10-16T15:31:32;16.80;99.90
5631;DHT22;2837;50.990;7.124;2022-10-16T15:33:57;16.80;99.90
5631;DHT22;2837;50.990;7.124;2022-10-16T15:36:32;16.80;99.90
5631;DHT22;2837;50.990;7.124;2022-10-16T15:39:00;16.80;99.90
5631;DHT22;2837;50.990;7.124;2022-10-16T15:41:26;16.80;99.90
5631;DHT22;2837;50.990;7.124;2022-10-16T15:43:52;16.70;99.90
5631;DHT22;2837;50.990;7.124;2022-10-16T15:46:22;16.80;99.90
5631;DHT22;2837;50.990;7.124;2022-10-16T15:48:49;16.70;99.90
5631;DHT22;2837;50.990;7.124;2022-10-16T15:51:15;16.70;99.90
5631;DHT22;2837;50.990;7.124;2022-10-16T15:53:41;16.70;99.90
5631;DHT22;2837;50.990;7.124;2022-10-16T15:56:08;16.70;99.90
5631;DHT22;2837;50.990;7.124;2022-10-16T15:58:34;16.70;99.90
5631;DHT22;2837;50.990;7.124;2022-10-16T16:01:00;16.70;99.90
5631;DHT22;2837;50.990;7.124;2022-10-16T16:03:27;16.70;99.90
5631;DHT22;2837;50.990;7.124;2022-10-16T16:05:53;16.70;99.90
5631;DHT22;2837;50.990;7.124;2022-10-16T16:08:19;16.70;99.90
5631;DHT22;2837;50.990;7.124;2022-10-16T16:10:45;16.70;99.90
5631;DHT22;2837;50.990;7.124;2022-10-16T16:13:11;16.70;99.90
5631;DHT22;2837;50.990;7.124;2022-10-16T16:15:39;16.70;99.90
5631;DHT22;2837;50.990;7.124;2022-10-16T16:18:06;16.70;99.90
5631;DHT22;2837;50.990;7.124;2022-10-16T16:20:32;16.70;99.90
5631;DHT22;2837;50.990;7.124;2022-10-16T16:22:57;16.70;99.90
5631;DHT22;2837;50.990;7.124;2022-10-16T16:25:23;16.70;99.90
5631;DHT22;2837;50.990;7.124;2022-10-16T16:27:48;16.70;99.90
5631;DHT22;2837;50.990;7.124;2022-10-16T16:30:14;16.70;99.90
5631;DHT22;2837;50.990;7.124;2022-10-16T16:32:40;16.70;99.90
5631;DHT22;2837;50.990;7.124;2022-10-16T16:35:06;16.70;99.90
5631;DHT22;2837;50.990;7.124;2022-10-16T16:37:31;16.70;99.90
5631;DHT22;2837;50.990;7.124;2022-10-16T16:39:57;16.70;99.90
5631;DHT22;2837;50.990;7.124;2022-10-16T16:42:26;16.70;99.90
5631;DHT22;2837;50.990;7.124;2022-10-16T16:44:52;16.60;99.90
5631;DHT22;2837;50.990;7.124;2022-10-16T16:47:17;16.70;99.90
5631;DHT22;2837;50.990;7.124;2022-10-16T16:49:43;16.70;99.90
5631;DHT22;2837;50.990;7.124;2022-10-16T16:52:08;16.70;99.90
5631;DHT22;2837;50.990;7.124;2022-10-16T16:54:34;16.60;99.90
5631;DHT22;2837;50.990;7.124;2022-10-16T16:57:00;16.60;99.90
5631;DHT22;2837;50.990;7.124;2022-10-16T16:59:26;16.70;99.90
5631;DHT22;2837;50.990;7.124;2022-10-16T17:01:51;16.70;99.90
5631;DHT22;2837;50.990;7.124;2022-10-16T17:04:17;16.70;99.90
5631;DHT22;2837;50.990;7.124;2022-10-16T17:06:44;16.60;99.90
5631;DHT22;2837;50.990;7.124;2022-10-16T17:09:10;16.70;99.90
5631;DHT22;2837;50.990;7.124;2022-10-16T17:11:38;16.70;99.90
5631;DHT22;2837;50.990;7.124;2022-10-16T17:14:06;16.60;99.90
5631;DHT22;2837;50.990;7.124;2022-10-16T17:16:34;16.70;99.90
5631;DHT22;2837;50.990;7.124;2022-10-16T17:19:02;16.70;99.90
5631;DHT22;2837;50.990;7.124;2022-10-16T17:21:28;16.70;99.90
5631;DHT22;2837;50.990;7.124;2022-10-16T17:23:55;16.70;99.90
5631;DHT22;2837;50.990;7.124;2022-10-16T17:26:20;16.70;99.90
5631;DHT22;2837;50.990;7.124;2022-10-16T17:28:50;16.60;99.90
5631;DHT22;2837;50.990;7.124;2022-10-16T17:31:18;16.70;99.90
5631;DHT22;2837;50.990;7.124;2022-10-16T17:33:44;16.70;99.90
5631;DHT22;2837;50.990;7.124;2022-10-16T17:36:11;16.60;99.90
5631;DHT22;2837;50.990;7.124;2022-10-16T17:38:39;16.70;99.90
5631;DHT22;2837;50.990;7.124;2022-10-16T17:41:22;16.70;99.90
5631;DHT22;2837;50.990;7.124;2022-10-16T17:43:48;16.70;99.90
5631;DHT22;2837;50.990;7.124;2022-10-16T17:46:16;16.70;99.90
5631;DHT22;2837;50.990;7.124;2022-10-16T17:48:45;16.70;99.90
5631;DHT22;2837;50.990;7.124;2022-10-16T17:51:12;16.70;99.90
5631;DHT22;2837;50.990;7.124;2022-10-16T17:53:39;16.70;99.90
5631;DHT22;2837;50.990;7.124;2022-10-16T17:56:05;16.70;99.90
5631;DHT22;2837;50.990;7.124;2022-10-16T17:58:32;16.70;99.90
5631;DHT22;2837;50.990;7.124;2022-10-16T18:00:58;16.70;99.90
5631;DHT22;2837;50.990;7.124;2022-10-16T18:03:24;16.70;99.90
5631;DHT22;2837;50.990;7.124;2022-10-16T18:05:52;16.60;99.90
5631;DHT22;2837;50.990;7.124;2022-10-16T18:08:17;16.70;99.90
5631;DHT22;2837;50.990;7.124;2022-10-16T18:10:49;16.70;99.90
5631;DHT22;2837;50.990;7.124;2022-10-16T18:13:16;16.70;99.90
5631;DHT22;2837;50.990;7.124;2022-10-16T18:15:42;16.70;99.90
5631;DHT22;2837;50.990;7.124;2022-10-16T18:18:08;16.70;99.90
5631;DHT22;2837;50.990;7.124;2022-10-16T18:20:33;16.70;99.90
5631;DHT22;2837;50.990;7.124;2022-10-16T18:22:59;16.70;99.90
5631;DHT22;2837;50.990;7.124;2022-10-16T18:25:25;16.60;99.90
5631;DHT22;2837;50.990;7.124;2022-10-16T18:27:50;16.60;99.90
5631;DHT22;2837;50.990;7.124;2022-10-16T18:30:16;16.60;99.90
5631;DHT22;2837;50.990;7.124;2022-10-16T18:32:42;16.70;99.90
5631;DHT22;2837;50.990;7.124;2022-10-16T18:35:07;16.60;99.90
5631;DHT22;2837;50.990;7.124;2022-10-16T18:37:36;16.60;99.90
5631;DHT22;2837;50.990;7.124;2022-10-16T18:40:03;16.70;99.90
5631;DHT22;2837;50.990;7.124;2022-10-16T18:42:29;16.60;99.90
5631;DHT22;2837;50.990;7.124;2022-10-16T18:44:54;16.60;99.90
5631;DHT22;2837;50.990;7.124;2022-10-16T18:47:20;16.60;99.90
5631;DHT22;2837;50.990;7.124;2022-10-16T18:49:49;16.60;99.90
5631;DHT22;2837;50.990;7.124;2022-10-16T18:52:14;16.60;99.90
5631;DHT22;2837;50.990;7.124;2022-10-16T18:54:40;16.60;99.90
5631;DHT22;2837;50.990;7.124;2022-10-16T18:57:06;16.60;99.90
5631;DHT22;2837;50.990;7.124;2022-10-16T18:59:32;16.60;99.90
5631;DHT22;2837;50.990;7.124;2022-10-16T19:01:57;16.60;99.90
5631;DHT22;2837;50.990;7.124;2022-10-16T19:04:23;16.60;99.90
5631;DHT22;2837;50.990;7.124;2022-10-16T19:06:51;16.60;99.90
5631;DHT22;2837;50.990;7.124;2022-10-16T19:09:20;16.70;99.90
5631;DHT22;2837;50.990;7.124;2022-10-16T19:11:46;16.60;99.90
5631;DHT22;2837;50.990;7.124;2022-10-16T19:14:14;16.60;99.90
5631;DHT22;2837;50.990;7.124;2022-10-16T19:16:40;16.70;99.90
5631;DHT22;2837;50.990;7.124;2022-10-16T19:19:15;16.70;99.90
5631;DHT22;2837;50.990;7.124;2022-10-16T19:21:42;16.70;99.90
5631;DHT22;2837;50.990;7.124;2022-10-16T19:24:14;16.60;99.90
5631;DHT22;2837;50.990;7.124;2022-10-16T19:26:40;16.70;99.90
5631;DHT22;2837;50.990;7.124;2022-10-16T19:29:06;16.70;99.90
5631;DHT22;2837;50.990;7.124;2022-10-16T19:31:32;16.70;99.90
5631;DHT22;2837;50.990;7.124;2022-10-16T19:34:00;16.70;99.90
5631;DHT22;2837;50.990;7.124;2022-10-16T19:36:32;16.70;99.90
5631;DHT22;2837;50.990;7.124;2022-10-16T19:39:00;16.70;99.90
5631;DHT22;2837;50.990;7.124;2022-10-16T19:41:27;16.70;99.90
5631;DHT22;2837;50.990;7.124;2022-10-16T19:43:53;16.70;99.90
5631;DHT22;2837;50.990;7.124;2022-10-16T19:46:24;16.70;99.90
5631;DHT22;2837;50.990;7.124;2022-10-16T19:48:54;16.70;99.90
5631;DHT22;2837;50.990;7.124;2022-10-16T19:51:20;16.60;99.90
5631;DHT22;2837;50.990;7.124;2022-10-16T19:53:46;16.60;99.90
5631;DHT22;2837;50.990;7.124;2022-10-16T19:56:17;16.60;99.90
5631;DHT22;2837;50.990;7.124;2022-10-16T19:58:44;16.60;99.90
5631;DHT22;2837;50.990;7.124;2022-10-16T20:01:11;16.60;99.90
5631;DHT22;2837;50.990;7.124;2022-10-16T20:03:37;16.60;99.90
5631;DHT22;2837;50.990;7.124;2022-10-16T20:06:07;16.60;99.90
5631;DHT22;2837;50.990;7.124;2022-10-16T20:08:34;16.60;99.90
5631;DHT22;2837;50.990;7.124;2022-10-16T20:11:00;16.60;99.90
5631;DHT22;2837;50.990;7.124;2022-10-16T20:13:27;16.60;99.90
5631;DHT22;2837;50.990;7.124;2022-10-16T20:15:53;16.60;99.90
5631;DHT22;2837;50.990;7.124;2022-10-16T20:18:18;16.60;99.90
5631;DHT22;2837;50.990;7.124;2022-10-16T20:20:46;16.60;99.90
5631;DHT22;2837;50.990;7.124;2022-10-16T20:23:14;16.60;99.90
5631;DHT22;2837;50.990;7.124;2022-10-16T20:25:41;16.60;99.90
5631;DHT22;2837;50.990;7.124;2022-10-16T20:28:08;16.50;99.90
5631;DHT22;2837;50.990;7.124;2022-10-16T20:30:37;16.50;99.90
5631;DHT22;2837;50.990;7.124;2022-10-16T20:33:03;16.50;99.90
5631;DHT22;2837;50.990;7.124;2022-10-16T20:35:34;16.50;99.90
5631;DHT22;2837;50.990;7.124;2022-10-16T20:38:00;16.50;99.90
5631;DHT22;2837;50.990;7.124;2022-10-16T20:40:26;16.50;99.90
5631;DHT22;2837;50.990;7.124;2022-10-16T20:42:51;16.50;99.90
5631;DHT22;2837;50.990;7.124;2022-10-16T20:45:17;16.50;99.90
5631;DHT22;2837;50.990;7.124;2022-10-16T20:47:42;16.50;99.90
5631;DHT22;2837;50.990;7.124;2022-10-16T20:50:08;16.50;99.90
5631;DHT22;2837;50.990;7.124;2022-10-16T20:52:34;16.50;99.90
5631;DHT22;2837;50.990;7.124;2022-10-16T20:54:59;16.40;99.90
5631;DHT22;2837;50.990;7.124;2022-10-16T20:57:25;16.50;99.90
5631;DHT22;2837;50.990;7.124;2022-10-16T20:59:50;16.40;99.90
